Time;durP1;ratioP1;P1;durP2;ratioP2;P2;SDS_P1;SDS_P2;PMS_P1;PMS_P2;Temp;Humidity;BMP_temperature;BMP_pressure;BME280_temperature;BME280_humidity;BME280_pressure;Samples;Min_cycle;Max_cycle;Signal;HPM_P1;HPM_P2
2023/08/07 00:01:09;;;;;;;8.98;3.53;;;;;;;;;;4979972;28;20486;-80
2023/08/07 00:03:35;;;;;;;5.75;2.90;;;;;;;;;;4994105;28;20037;-81
2023/08/07 00:06:01;;;;;;;5.90;3.15;;;;;;;;;;5005137;28;20045;-81
2023/08/07 00:08:26;;;;;;;7.15;3.20;;;;;;;;;;5013222;28;20103;-82
2023/08/07 00:10:51;;;;;;;4.93;3.42;;;;;;;;;;5003457;28;20072;-81
2023/08/07 00:13:17;;;;;;;5.22;3.13;;;;;;;;;;5010450;28;20033;-82
2023/08/07 00:15:42;;;;;;;4.57;2.95;;;;;;;;;;5011654;28;20396;-82
2023/08/07 00:18:08;;;;;;;5.50;3.22;;;;;;;;;;5011657;28;20025;-81
2023/08/07 00:20:33;;;;;;;9.93;4.20;;;;;;;;;;5003454;28;20493;-82
2023/08/07 00:22:59;;;;;;;5.70;3.03;;;;;;;;;;5010170;28;20370;-82
2023/08/07 00:25:24;;;;;;;5.05;3.25;;;;;;;;;;5000988;28;20096;-82
2023/08/07 00:27:50;;;;;;;6.07;3.50;;;;;;;;;;5004215;28;20111;-82
2023/08/07 00:30:15;;;;;;;5.78;3.38;;;;;;;;;;5003518;28;20037;-82
2023/08/07 00:32:41;;;;;;;6.15;3.40;;;;;;;;;;5003263;28;20034;-82
2023/08/07 00:35:08;;;;;;;7.97;3.60;;;;;;;;;;4993929;28;20041;-81
2023/08/07 00:37:33;;;;;;;5.57;3.92;;;;;;;;;;5008755;28;20037;-82
2023/08/07 00:39:59;;;;;;;8.35;4.03;;;;;;;;;;5001671;28;20057;-81
2023/08/07 00:42:24;;;;;;;6.78;4.38;;;;;;;;;;5003186;28;20034;-82
2023/08/07 00:44:50;;;;;;;9.45;4.47;;;;;;;;;;5004165;28;20036;-82
2023/08/07 00:47:15;;;;;;;7.10;4.22;;;;;;;;;;5005365;28;20117;-81
2023/08/07 00:49:42;;;;;;;9.50;5.03;;;;;;;;;;4991632;28;20045;-82
2023/08/07 00:52:07;;;;;;;10.05;4.50;;;;;;;;;;5012678;28;20041;-81
2023/08/07 00:54:33;;;;;;;8.10;4.60;;;;;;;;;;5011006;28;20195;-82
2023/08/07 00:57:09;;;;;;;7.35;4.18;;;;;;;;;;5014734;28;20045;-81
2023/08/07 00:59:35;;;;;;;8.82;4.10;;;;;;;;;;5004362;28;20083;-83
2023/08/07 01:02:00;;;;;;;6.88;4.30;;;;;;;;;;5010600;28;20432;-82
2023/08/07 01:04:28;;;;;;;9.43;4.05;;;;;;;;;;5004086;28;20469;-82
2023/08/07 01:06:54;;;;;;;6.10;3.75;;;;;;;;;;5026175;28;20501;-82
2023/08/07 01:09:19;;;;;;;8.95;4.32;;;;;;;;;;5003191;28;20044;-82
2023/08/07 01:12:04;;;;;;;7.07;3.88;;;;;;;;;;4994163;28;20034;-82
2023/08/07 01:14:51;;;;;;;6.93;3.70;;;;;;;;;;4980280;28;20067;-82
2023/08/07 01:17:19;;;;;;;6.72;4.03;;;;;;;;;;5000107;28;20432;-82
2023/08/07 01:19:45;;;;;;;6.93;3.85;;;;;;;;;;4997005;28;20505;-82
2023/08/07 01:22:14;;;;;;;7.50;4.82;;;;;;;;;;4994896;28;20076;-82
2023/08/07 01:24:45;;;;;;;7.10;3.92;;;;;;;;;;5013246;28;20157;-82
2023/08/07 01:27:19;;;;;;;7.30;4.18;;;;;;;;;;5011043;28;20111;-82
2023/08/07 01:30:06;;;;;;;7.05;3.88;;;;;;;;;;5013424;28;20033;-82
2023/08/07 01:32:49;;;;;;;8.43;3.63;;;;;;;;;;5029232;28;20036;-82
2023/08/07 01:35:15;;;;;;;7.35;3.92;;;;;;;;;;5037060;28;20038;-82
2023/08/07 01:37:42;;;;;;;6.68;4.25;;;;;;;;;;5004065;28;20049;-82
2023/08/07 01:40:10;;;;;;;8.70;5.03;;;;;;;;;;5003035;28;20133;-82
2023/08/07 01:42:36;;;;;;;8.23;5.70;;;;;;;;;;4993990;28;20194;-82
2023/08/07 01:45:05;;;;;;;9.68;6.35;;;;;;;;;;4991897;28;20036;-82
2023/08/07 01:47:31;;;;;;;10.65;8.20;;;;;;;;;;4981862;28;20057;-83
2023/08/07 01:49:56;;;;;;;15.13;9.38;;;;;;;;;;4990177;28;20049;-82
2023/08/07 01:52:24;;;;;;;15.15;10.57;;;;;;;;;;4993241;28;20042;-82
2023/08/07 01:54:49;;;;;;;17.42;11.57;;;;;;;;;;4983875;28;20464;-82
2023/08/07 01:57:15;;;;;;;14.88;11.13;;;;;;;;;;5019033;28;20049;-82
2023/08/07 01:59:40;;;;;;;14.40;10.35;;;;;;;;;;4995397;28;20034;-82
2023/08/07 02:02:06;;;;;;;12.38;9.15;;;;;;;;;;4974702;28;20085;-82
2023/08/07 02:04:31;;;;;;;11.30;7.85;;;;;;;;;;4974078;28;20502;-82
2023/08/07 02:07:02;;;;;;;10.95;6.90;;;;;;;;;;4996269;28;20045;-82
2023/08/07 02:09:28;;;;;;;7.57;5.78;;;;;;;;;;5000135;28;20033;-82
2023/08/07 02:11:53;;;;;;;10.25;5.43;;;;;;;;;;5002082;28;20037;-82
2023/08/07 02:14:19;;;;;;;7.53;4.70;;;;;;;;;;5012827;28;20033;-82
2023/08/07 02:16:44;;;;;;;8.50;4.57;;;;;;;;;;5007103;28;20039;-82
2023/08/07 02:19:09;;;;;;;8.05;4.53;;;;;;;;;;5002736;28;20701;-81
2023/08/07 02:21:35;;;;;;;10.27;4.85;;;;;;;;;;5005016;28;20044;-81
2023/08/07 02:24:00;;;;;;;6.72;4.38;;;;;;;;;;5016925;28;20045;-82
2023/08/07 02:26:25;;;;;;;8.65;4.53;;;;;;;;;;5006615;28;20037;-82
2023/08/07 02:28:51;;;;;;;11.93;5.00;;;;;;;;;;5000634;28;20092;-81
2023/08/07 02:31:16;;;;;;;9.05;4.72;;;;;;;;;;4997982;28;20116;-81
2023/08/07 02:33:42;;;;;;;11.63;5.55;;;;;;;;;;5015756;28;20042;-82
2023/08/07 02:36:10;;;;;;;10.50;5.25;;;;;;;;;;5014961;28;20094;-82
2023/08/07 02:38:38;;;;;;;7.75;5.15;;;;;;;;;;4999037;28;20034;-82
2023/08/07 02:41:04;;;;;;;8.68;5.13;;;;;;;;;;5004133;28;20041;-83
2023/08/07 02:43:34;;;;;;;9.15;5.30;;;;;;;;;;5015485;28;20521;-82
2023/08/07 02:45:59;;;;;;;8.43;5.47;;;;;;;;;;4998897;28;20038;-82
2023/08/07 02:48:25;;;;;;;8.93;4.95;;;;;;;;;;5017771;28;20038;-82
2023/08/07 02:50:51;;;;;;;8.57;5.03;;;;;;;;;;5013174;28;20041;-82
2023/08/07 02:53:17;;;;;;;9.65;5.82;;;;;;;;;;4993462;28;20492;-82
2023/08/07 02:55:43;;;;;;;10.80;5.63;;;;;;;;;;5005370;28;20096;-83
2023/08/07 02:58:09;;;;;;;10.63;5.95;;;;;;;;;;4987403;28;20667;-83
2023/08/07 03:00:35;;;;;;;11.82;6.10;;;;;;;;;;4968114;28;20043;-83
2023/08/07 03:03:00;;;;;;;12.35;6.38;;;;;;;;;;4997676;28;20442;-82
2023/08/07 03:05:26;;;;;;;10.73;6.65;;;;;;;;;;4981968;28;20137;-82
2023/08/07 03:07:51;;;;;;;9.73;6.80;;;;;;;;;;4972604;28;20046;-82
2023/08/07 03:10:16;;;;;;;12.70;6.80;;;;;;;;;;4985378;28;20097;-82
2023/08/07 03:12:42;;;;;;;11.45;7.13;;;;;;;;;;4995382;28;20423;-82
2023/08/07 03:15:08;;;;;;;11.55;7.60;;;;;;;;;;4988694;28;20033;-81
2023/08/07 03:17:33;;;;;;;11.38;7.43;;;;;;;;;;5000372;28;20128;-82
2023/08/07 03:19:58;;;;;;;15.18;7.97;;;;;;;;;;5015746;28;20066;-82
2023/08/07 03:22:33;;;;;;;15.70;8.18;;;;;;;;;;5011772;28;20033;-82
2023/08/07 03:24:58;;;;;;;15.75;8.65;;;;;;;;;;5015598;28;20697;-82
2023/08/07 03:27:24;;;;;;;12.82;8.15;;;;;;;;;;5014100;28;20029;-82
2023/08/07 03:29:55;;;;;;;13.35;8.55;;;;;;;;;;4992469;28;20037;-82
2023/08/07 03:32:20;;;;;;;14.57;7.53;;;;;;;;;;5012447;28;20112;-82
2023/08/07 03:34:46;;;;;;;14.50;8.27;;;;;;;;;;4999331;28;20468;-82
2023/08/07 03:37:11;;;;;;;10.40;7.80;;;;;;;;;;5002906;28;20033;-82
2023/08/07 03:39:36;;;;;;;14.13;7.50;;;;;;;;;;4997347;28;20032;-82
2023/08/07 03:42:02;;;;;;;12.07;7.28;;;;;;;;;;5008648;28;20069;-81
2023/08/07 03:44:27;;;;;;;12.05;6.88;;;;;;;;;;4996216;28;20111;-82
2023/08/07 03:47:01;;;;;;;10.07;6.18;;;;;;;;;;5004538;28;20045;-82
2023/08/07 03:49:26;;;;;;;15.82;7.25;;;;;;;;;;5009315;28;20075;-81
2023/08/07 03:51:51;;;;;;;11.27;6.43;;;;;;;;;;5013221;28;20034;-82
2023/08/07 03:54:17;;;;;;;10.00;6.13;;;;;;;;;;5003824;28;20029;-82
2023/08/07 03:56:42;;;;;;;11.65;5.93;;;;;;;;;;4997652;28;20029;-81
2023/08/07 03:59:07;;;;;;;10.25;6.38;;;;;;;;;;5010475;28;20029;-81
2023/08/07 04:01:35;;;;;;;9.73;6.30;;;;;;;;;;5011704;28;20042;-82
2023/08/07 04:04:00;;;;;;;8.77;6.05;;;;;;;;;;5014369;28;20485;-81
2023/08/07 04:06:26;;;;;;;9.18;6.25;;;;;;;;;;5011850;28;20052;-82
2023/08/07 04:08:52;;;;;;;7.93;5.40;;;;;;;;;;5015777;28;20042;-81
2023/08/07 04:11:17;;;;;;;8.80;6.00;;;;;;;;;;4999893;28;20052;-81
2023/08/07 04:13:43;;;;;;;10.45;5.40;;;;;;;;;;5000462;28;20060;-82
2023/08/07 04:16:10;;;;;;;8.55;5.38;;;;;;;;;;5003591;28;20037;-81
2023/08/07 04:18:36;;;;;;;8.70;5.30;;;;;;;;;;4976345;28;20514;-82
2023/08/07 04:21:02;;;;;;;8.63;5.40;;;;;;;;;;4982907;28;20053;-82
2023/08/07 04:23:27;;;;;;;8.02;4.90;;;;;;;;;;4984457;28;20042;-84
2023/08/07 04:25:53;;;;;;;8.48;5.43;;;;;;;;;;4999347;28;20038;-83
2023/08/07 04:28:19;;;;;;;10.57;5.20;;;;;;;;;;4998128;28;20370;-84
2023/08/07 04:30:45;;;;;;;8.00;4.90;;;;;;;;;;4987458;28;20173;-83
2023/08/07 04:33:11;;;;;;;12.52;4.78;;;;;;;;;;4998707;28;20022;-82
2023/08/07 04:35:36;;;;;;;8.70;4.90;;;;;;;;;;4981969;28;20059;-82
2023/08/07 04:38:02;;;;;;;8.23;4.70;;;;;;;;;;4980158;28;20042;-83
2023/08/07 04:40:28;;;;;;;7.90;4.25;;;;;;;;;;4976213;28;20074;-83
2023/08/07 04:42:55;;;;;;;8.35;4.78;;;;;;;;;;4985280;28;20042;-84
2023/08/07 04:45:20;;;;;;;9.25;4.07;;;;;;;;;;5000988;28;20037;-83
2023/08/07 04:47:46;;;;;;;7.60;4.30;;;;;;;;;;4997714;28;20034;-83
2023/08/07 04:50:11;;;;;;;8.25;4.30;;;;;;;;;;5014883;28;20119;-85
2023/08/07 04:52:37;;;;;;;9.00;3.88;;;;;;;;;;5002811;28;20038;-83
2023/08/07 04:55:02;;;;;;;7.10;3.80;;;;;;;;;;5001841;28;20041;-82
2023/08/07 04:57:27;;;;;;;7.15;3.78;;;;;;;;;;4999593;28;20116;-82
2023/08/07 04:59:53;;;;;;;8.25;3.90;;;;;;;;;;5004131;28;20125;-83
2023/08/07 05:02:19;;;;;;;6.60;3.95;;;;;;;;;;5010238;28;20064;-81
2023/08/07 05:04:44;;;;;;;8.30;3.70;;;;;;;;;;5001223;28;20034;-86
2023/08/07 05:07:10;;;;;;;5.80;3.17;;;;;;;;;;5007331;28;20041;-83
2023/08/07 05:09:35;;;;;;;6.95;3.40;;;;;;;;;;5006724;28;20037;-84
2023/08/07 05:12:01;;;;;;;7.20;3.55;;;;;;;;;;4997486;28;20089;-84
2023/08/07 05:14:26;;;;;;;6.82;3.60;;;;;;;;;;4997465;28;20786;-83
2023/08/07 05:16:52;;;;;;;7.53;3.40;;;;;;;;;;5016311;28;20041;-83
2023/08/07 05:19:17;;;;;;;7.00;3.28;;;;;;;;;;4994635;28;20037;-81
2023/08/07 05:21:49;;;;;;;9.02;3.80;;;;;;;;;;4994504;28;20502;-82
2023/08/07 05:24:15;;;;;;;5.07;3.28;;;;;;;;;;4981627;28;20034;-82
2023/08/07 05:26:40;;;;;;;6.93;3.38;;;;;;;;;;4992458;28;20363;-81
2023/08/07 05:29:09;;;;;;;7.50;3.25;;;;;;;;;;4975451;28;20060;-85
2023/08/07 05:31:34;;;;;;;6.43;3.28;;;;;;;;;;5004526;28;20483;-82
2023/08/07 05:34:00;;;;;;;9.45;3.90;;;;;;;;;;5000053;28;20124;-82
2023/08/07 05:36:32;;;;;;;6.20;3.35;;;;;;;;;;4983913;28;20041;-82
2023/08/07 05:38:58;;;;;;;8.13;3.42;;;;;;;;;;4983422;28;20050;-82
2023/08/07 05:41:23;;;;;;;9.35;3.45;;;;;;;;;;4982951;28;20084;-84
2023/08/07 05:43:49;;;;;;;6.50;3.30;;;;;;;;;;4983990;28;20042;-82
2023/08/07 05:46:14;;;;;;;8.52;3.30;;;;;;;;;;4979579;28;20149;-87
2023/08/07 05:48:40;;;;;;;7.35;3.58;;;;;;;;;;4994185;28;20438;-85
2023/08/07 05:51:06;;;;;;;6.25;3.17;;;;;;;;;;4985281;28;20123;-85
2023/08/07 05:53:32;;;;;;;7.43;3.37;;;;;;;;;;4988264;28;20038;-86
2023/08/07 05:55:58;;;;;;;5.63;2.80;;;;;;;;;;4982386;28;20311;-85
2023/08/07 05:58:23;;;;;;;5.93;2.80;;;;;;;;;;4982109;28;20026;-85
2023/08/07 06:00:48;;;;;;;6.63;3.30;;;;;;;;;;4978303;28;20069;-85
2023/08/07 06:03:14;;;;;;;6.50;3.20;;;;;;;;;;4967441;28;20047;-85
2023/08/07 06:05:40;;;;;;;5.53;2.72;;;;;;;;;;4971557;28;20057;-84
2023/08/07 06:08:05;;;;;;;6.05;2.95;;;;;;;;;;4998695;28;20120;-82
2023/08/07 06:10:31;;;;;;;6.43;2.83;;;;;;;;;;4981512;28;20164;-83
2023/08/07 06:12:56;;;;;;;5.60;2.65;;;;;;;;;;4975809;28;20521;-84
2023/08/07 06:15:22;;;;;;;7.00;2.90;;;;;;;;;;4979705;28;20125;-85
2023/08/07 06:17:47;;;;;;;5.80;2.70;;;;;;;;;;4993265;28;20026;-84
2023/08/07 06:20:14;;;;;;;4.75;2.65;;;;;;;;;;4979557;28;20037;-84
2023/08/07 06:22:40;;;;;;;5.20;2.23;;;;;;;;;;4996402;28;20386;-86
2023/08/07 06:25:06;;;;;;;5.00;2.15;;;;;;;;;;4978561;28;20034;-84
2023/08/07 06:27:32;;;;;;;5.45;2.40;;;;;;;;;;5001797;28;20573;-85
2023/08/07 06:30:14;;;;;;;3.97;2.30;;;;;;;;;;4998355;28;20159;-83
2023/08/07 06:32:39;;;;;;;5.40;2.17;;;;;;;;;;5000135;28;20091;-83
2023/08/07 06:35:08;;;;;;;4.93;2.15;;;;;;;;;;4986351;28;20532;-83
2023/08/07 06:37:34;;;;;;;6.60;2.17;;;;;;;;;;4994046;28;20096;-85
2023/08/07 06:40:01;;;;;;;6.80;2.17;;;;;;;;;;4981806;28;20043;-83
2023/08/07 06:42:27;;;;;;;6.00;1.92;;;;;;;;;;4996903;28;20042;-84
2023/08/07 06:44:55;;;;;;;4.68;2.05;;;;;;;;;;4990960;28;20500;-84
2023/08/07 06:47:20;;;;;;;2.95;1.80;;;;;;;;;;5007443;28;20041;-84
2023/08/07 06:49:45;;;;;;;5.40;2.10;;;;;;;;;;5025148;28;20052;-84
2023/08/07 06:52:11;;;;;;;6.75;1.92;;;;;;;;;;5004702;28;20033;-85
2023/08/07 06:54:36;;;;;;;4.70;1.77;;;;;;;;;;5000972;28;20030;-85
2023/08/07 06:57:02;;;;;;;4.18;1.90;;;;;;;;;;5013832;28;20117;-84
2023/08/07 06:59:27;;;;;;;4.68;1.83;;;;;;;;;;5000284;28;20038;-84
2023/08/07 07:01:53;;;;;;;5.88;2.05;;;;;;;;;;4997791;28;20034;-85
2023/08/07 07:04:18;;;;;;;4.90;1.60;;;;;;;;;;4972772;28;20041;-84
2023/08/07 07:06:43;;;;;;;6.78;1.85;;;;;;;;;;4989304;28;20045;-84
2023/08/07 07:09:09;;;;;;;6.18;1.98;;;;;;;;;;4993294;28;20422;-84
2023/08/07 07:11:34;;;;;;;3.33;1.50;;;;;;;;;;5013425;28;20033;-84
2023/08/07 07:14:00;;;;;;;4.80;1.73;;;;;;;;;;5015573;28;20415;-83
2023/08/07 07:16:25;;;;;;;4.88;1.70;;;;;;;;;;5011998;28;20052;-82
2023/08/07 07:18:51;;;;;;;4.43;1.60;;;;;;;;;;5011730;28;20095;-83
2023/08/07 07:21:17;;;;;;;4.70;1.73;;;;;;;;;;5011488;28;20148;-84
2023/08/07 07:23:42;;;;;;;3.65;1.65;;;;;;;;;;5018210;28;20492;-83
2023/08/07 07:26:07;;;;;;;8.32;1.65;;;;;;;;;;5013666;28;20041;-83
2023/08/07 07:28:33;;;;;;;6.07;1.60;;;;;;;;;;5020629;28;20032;-84
2023/08/07 07:30:58;;;;;;;3.55;1.40;;;;;;;;;;5014860;28;20045;-84
2023/08/07 07:33:24;;;;;;;4.30;1.50;;;;;;;;;;5017698;28;20541;-82
2023/08/07 07:35:49;;;;;;;4.40;1.40;;;;;;;;;;5000524;28;20025;-83
2023/08/07 07:38:35;;;;;;;2.85;1.27;;;;;;;;;;5016653;28;20039;-83
2023/08/07 07:41:03;;;;;;;3.55;1.45;;;;;;;;;;5000502;28;20635;-83
2023/08/07 07:43:29;;;;;;;5.03;1.45;;;;;;;;;;5001873;28;20064;-83
2023/08/07 07:45:54;;;;;;;6.55;1.60;;;;;;;;;;4999404;28;20121;-83
2023/08/07 07:48:20;;;;;;;4.50;1.50;;;;;;;;;;4996863;28;20120;-83
2023/08/07 07:50:46;;;;;;;5.50;1.50;;;;;;;;;;5008296;28;20048;-84
2023/08/07 07:53:11;;;;;;;4.32;1.30;;;;;;;;;;5022054;28;20048;-84
2023/08/07 07:55:37;;;;;;;3.70;1.35;;;;;;;;;;5021647;28;20041;-83
2023/08/07 07:58:03;;;;;;;7.20;1.45;;;;;;;;;;5022762;28;20599;-83
2023/08/07 08:00:28;;;;;;;4.18;1.73;;;;;;;;;;5007915;28;20034;-85
2023/08/07 08:02:54;;;;;;;3.75;1.40;;;;;;;;;;5009636;28;20033;-85
2023/08/07 08:05:19;;;;;;;3.80;1.60;;;;;;;;;;5007698;28;20595;-85
2023/08/07 08:07:45;;;;;;;4.78;1.40;;;;;;;;;;5007066;28;20068;-84
2023/08/07 08:10:10;;;;;;;3.92;1.48;;;;;;;;;;5021970;28;20117;-80
2023/08/07 08:12:36;;;;;;;6.22;1.60;;;;;;;;;;5018556;28;20128;-80
2023/08/07 08:15:03;;;;;;;4.47;1.50;;;;;;;;;;5008484;28;20416;-80
2023/08/07 08:17:28;;;;;;;2.92;1.48;;;;;;;;;;4999439;28;20041;-80
2023/08/07 08:19:54;;;;;;;5.30;2.00;;;;;;;;;;4978668;28;20556;-81
2023/08/07 08:22:19;;;;;;;4.00;1.92;;;;;;;;;;4991484;28;20056;-80
2023/08/07 08:24:45;;;;;;;3.75;1.70;;;;;;;;;;5013277;28;20403;-80
2023/08/07 08:27:10;;;;;;;3.25;1.52;;;;;;;;;;5011057;28;20040;-80
2023/08/07 08:29:35;;;;;;;5.13;1.70;;;;;;;;;;5012555;28;20107;-81
2023/08/07 08:32:01;;;;;;;3.55;1.63;;;;;;;;;;5010603;28;20062;-79
2023/08/07 08:34:27;;;;;;;5.03;1.80;;;;;;;;;;4997628;28;20038;-81
2023/08/07 08:36:52;;;;;;;4.03;1.52;;;;;;;;;;5003876;28;20041;-81
2023/08/07 08:39:22;;;;;;;3.25;1.48;;;;;;;;;;5004764;28;20464;-79
2023/08/07 08:41:48;;;;;;;4.47;1.77;;;;;;;;;;5028991;28;20034;-81
2023/08/07 08:44:14;;;;;;;3.55;1.75;;;;;;;;;;5010954;28;20935;-81
2023/08/07 08:46:42;;;;;;;4.05;1.63;;;;;;;;;;5005803;28;20037;-80
2023/08/07 08:49:08;;;;;;;5.07;1.50;;;;;;;;;;4956105;28;20148;-80
2023/08/07 08:51:34;;;;;;;4.90;1.50;;;;;;;;;;5000434;28;20034;-80
2023/08/07 08:54:03;;;;;;;5.05;1.67;;;;;;;;;;4991781;28;20034;-81
2023/08/07 08:56:29;;;;;;;3.20;1.70;;;;;;;;;;4997565;28;20049;-81
2023/08/07 08:58:55;;;;;;;5.75;1.60;;;;;;;;;;4996754;28;20045;-81
2023/08/07 09:01:21;;;;;;;3.75;1.63;;;;;;;;;;4994735;28;20029;-82
2023/08/07 09:03:47;;;;;;;5.45;1.50;;;;;;;;;;4980967;28;20030;-80
2023/08/07 09:06:13;;;;;;;4.13;1.73;;;;;;;;;;5006638;28;20044;-81
2023/08/07 09:08:42;;;;;;;5.15;1.60;;;;;;;;;;5020565;28;20030;-80
2023/08/07 09:11:13;;;;;;;3.33;1.77;;;;;;;;;;5014912;28;20041;-80
2023/08/07 09:13:40;;;;;;;8.70;2.33;;;;;;;;;;5013922;28;20365;-79
2023/08/07 09:16:08;;;;;;;5.65;2.28;;;;;;;;;;5011918;28;20444;-80
2023/08/07 09:18:34;;;;;;;6.93;2.55;;;;;;;;;;4988142;28;20091;-79
2023/08/07 09:21:00;;;;;;;5.22;2.50;;;;;;;;;;5001020;28;20940;-79
2023/08/07 09:23:25;;;;;;;3.97;2.42;;;;;;;;;;5013826;28;20042;-79
2023/08/07 09:26:04;;;;;;;4.90;2.40;;;;;;;;;;5014435;28;20057;-80
2023/08/07 09:28:30;;;;;;;6.80;2.47;;;;;;;;;;5012864;28;20507;-80
2023/08/07 09:30:56;;;;;;;7.78;2.90;;;;;;;;;;4999732;28;20117;-80
2023/08/07 09:33:33;;;;;;;3.83;2.00;;;;;;;;;;5021398;28;20293;-80
2023/08/07 09:36:02;;;;;;;4.93;2.08;;;;;;;;;;4999279;28;20037;-80
2023/08/07 09:38:32;;;;;;;5.60;1.85;;;;;;;;;;5001239;28;20042;-80
2023/08/07 09:41:06;;;;;;;3.33;1.50;;;;;;;;;;5020986;28;20044;-80
2023/08/07 09:43:35;;;;;;;5.70;2.17;;;;;;;;;;5017625;28;20482;-79
2023/08/07 09:46:04;;;;;;;6.15;1.83;;;;;;;;;;5017744;28;20044;-80
2023/08/07 09:48:34;;;;;;;4.70;1.70;;;;;;;;;;4992389;28;20029;-80
2023/08/07 09:51:05;;;;;;;5.68;1.60;;;;;;;;;;5002810;28;20128;-81
2023/08/07 09:53:31;;;;;;;5.03;1.50;;;;;;;;;;4998962;28;20100;-81
2023/08/07 09:55:57;;;;;;;4.40;1.40;;;;;;;;;;4990090;28;20117;-79
2023/08/07 09:58:23;;;;;;;3.08;1.20;;;;;;;;;;5004546;28;20037;-80
2023/08/07 10:01:09;;;;;;;3.72;1.45;;;;;;;;;;5014982;28;20464;-81
2023/08/07 10:03:35;;;;;;;5.82;1.70;;;;;;;;;;5010763;28;20064;-80
2023/08/07 10:06:00;;;;;;;2.97;1.20;;;;;;;;;;4984044;28;20050;-80
2023/08/07 10:08:26;;;;;;;4.82;1.30;;;;;;;;;;4987856;28;20042;-80
2023/08/07 10:10:51;;;;;;;4.57;1.20;;;;;;;;;;4963392;28;20030;-79
2023/08/07 10:13:17;;;;;;;4.88;1.33;;;;;;;;;;4984020;28;20115;-80
2023/08/07 10:15:43;;;;;;;5.47;1.00;;;;;;;;;;4976385;28;20053;-80
2023/08/07 10:18:09;;;;;;;4.32;1.15;;;;;;;;;;4980933;28;20041;-80
2023/08/07 10:20:36;;;;;;;3.95;1.00;;;;;;;;;;5000325;28;20077;-80
2023/08/07 10:23:07;;;;;;;3.22;0.90;;;;;;;;;;4977095;28;20038;-80
2023/08/07 10:25:35;;;;;;;3.38;1.30;;;;;;;;;;4985702;28;20034;-79
2023/08/07 10:28:01;;;;;;;3.88;1.08;;;;;;;;;;4976692;28;20053;-80
2023/08/07 10:30:27;;;;;;;3.90;1.20;;;;;;;;;;4977359;28;20416;-80
2023/08/07 10:32:53;;;;;;;4.45;1.38;;;;;;;;;;4990374;28;20037;-80
2023/08/07 10:35:32;;;;;;;4.60;1.25;;;;;;;;;;4983993;28;20511;-80
2023/08/07 10:38:08;;;;;;;3.95;1.20;;;;;;;;;;4971247;28;20193;-80
2023/08/07 10:40:53;;;;;;;2.95;1.10;;;;;;;;;;4994423;28;20045;-81
2023/08/07 10:43:18;;;;;;;3.63;1.10;;;;;;;;;;4995396;28;20034;-81
2023/08/07 10:45:44;;;;;;;3.60;1.20;;;;;;;;;;4982366;28;20033;-80
2023/08/07 10:48:19;;;;;;;3.95;1.27;;;;;;;;;;4980390;28;20501;-80
2023/08/07 10:50:59;;;;;;;3.75;0.98;;;;;;;;;;4997911;28;20064;-80
2023/08/07 10:53:32;;;;;;;3.28;1.25;;;;;;;;;;4998839;28;20049;-81
2023/08/07 10:56:02;;;;;;;3.28;0.90;;;;;;;;;;5017351;28;20033;-80
2023/08/07 10:58:54;;;;;;;3.10;1.10;;;;;;;;;;4996533;28;20092;-80
2023/08/07 11:01:35;;;;;;;3.30;1.20;;;;;;;;;;4991205;28;20100;-79
2023/08/07 11:04:06;;;;;;;3.22;1.08;;;;;;;;;;4996120;28;20045;-80
2023/08/07 11:06:42;;;;;;;3.60;1.20;;;;;;;;;;5003614;28;20050;-78
2023/08/07 11:09:10;;;;;;;3.08;1.17;;;;;;;;;;4976947;28;20096;-79
2023/08/07 11:11:53;;;;;;;4.90;1.65;;;;;;;;;;4985731;28;20052;-79
2023/08/07 11:14:19;;;;;;;3.22;0.95;;;;;;;;;;5012534;28;20037;-79
2023/08/07 11:16:46;;;;;;;4.50;1.27;;;;;;;;;;4999582;28;20045;-80
2023/08/07 11:19:20;;;;;;;2.22;1.00;;;;;;;;;;4995201;28;20136;-79
2023/08/07 11:21:45;;;;;;;3.70;1.33;;;;;;;;;;5028182;28;20041;-80
2023/08/07 11:24:13;;;;;;;2.55;0.90;;;;;;;;;;4971861;28;20564;-79
2023/08/07 11:26:38;;;;;;;;;;;;;;;;;;4986909;28;20045;-79
2023/08/07 11:29:04;;;;;;;3.13;1.00;;;;;;;;;;4981782;28;19924;-80
2023/08/07 11:31:30;;;;;;;3.15;0.90;;;;;;;;;;4981442;28;20033;-79
2023/08/07 11:33:57;;;;;;;2.88;1.17;;;;;;;;;;4976873;28;20049;-78
2023/08/07 11:36:22;;;;;;;2.88;0.98;;;;;;;;;;4995844;28;20129;-79
2023/08/07 11:38:48;;;;;;;3.97;1.15;;;;;;;;;;4997028;28;20121;-79
2023/08/07 11:41:16;;;;;;;2.10;0.95;;;;;;;;;;4995688;28;20039;-79
2023/08/07 11:43:42;;;;;;;4.63;1.10;;;;;;;;;;4996587;28;20061;-80
2023/08/07 11:46:10;;;;;;;2.70;1.00;;;;;;;;;;4988400;28;20049;-79
2023/08/07 11:48:37;;;;;;;3.20;0.98;;;;;;;;;;4998110;28;20141;-80
2023/08/07 11:51:04;;;;;;;5.35;1.17;;;;;;;;;;4979296;28;20048;-80
2023/08/07 11:53:32;;;;;;;3.55;1.05;;;;;;;;;;4979509;28;20037;-80
2023/08/07 11:56:10;;;;;;;2.22;0.90;;;;;;;;;;4996212;28;20086;-80
2023/08/07 11:58:47;;;;;;;3.72;1.13;;;;;;;;;;5000701;28;20037;-80
2023/08/07 12:01:14;;;;;;;4.95;1.10;;;;;;;;;;4994256;28;20124;-79
2023/08/07 12:03:51;;;;;;;2.70;1.10;;;;;;;;;;4980611;28;20057;-80
2023/08/07 12:06:19;;;;;;;4.43;1.08;;;;;;;;;;4993648;28;20516;-80
2023/08/07 12:08:45;;;;;;;7.07;1.20;;;;;;;;;;4985265;28;20500;-80
2023/08/07 12:11:12;;;;;;;3.22;1.17;;;;;;;;;;4992084;28;20042;-80
2023/08/07 12:13:39;;;;;;;3.53;1.10;;;;;;;;;;4998494;28;20045;-80
2023/08/07 12:16:04;;;;;;;3.83;1.10;;;;;;;;;;4996295;28;20342;-80
2023/08/07 12:18:30;;;;;;;4.97;1.10;;;;;;;;;;5004769;28;20036;-80
2023/08/07 12:21:06;;;;;;;3.35;0.95;;;;;;;;;;5026413;28;20053;-80
2023/08/07 12:23:35;;;;;;;3.90;1.00;;;;;;;;;;5011540;28;20609;-79
2023/08/07 12:26:02;;;;;;;3.28;0.90;;;;;;;;;;4989376;28;20493;-79
2023/08/07 12:28:27;;;;;;;3.15;0.90;;;;;;;;;;4998023;28;20041;-80
2023/08/07 12:30:53;;;;;;;3.30;1.00;;;;;;;;;;4988959;28;20033;-81
2023/08/07 12:33:19;;;;;;;2.85;0.95;;;;;;;;;;4992953;28;20116;-81
2023/08/07 12:35:44;;;;;;;5.53;0.93;;;;;;;;;;4999033;28;20654;-80
2023/08/07 12:38:10;;;;;;;5.75;1.20;;;;;;;;;;5013411;28;20050;-81
2023/08/07 12:40:36;;;;;;;3.83;1.00;;;;;;;;;;5005146;28;20516;-80
2023/08/07 12:43:03;;;;;;;3.92;0.90;;;;;;;;;;5017665;28;20042;-81
2023/08/07 12:45:28;;;;;;;3.63;0.90;;;;;;;;;;5000622;28;20501;-81
2023/08/07 12:47:54;;;;;;;3.60;0.90;;;;;;;;;;4999918;28;20037;-81
2023/08/07 12:50:19;;;;;;;3.53;1.08;;;;;;;;;;5011260;28;20093;-81
2023/08/07 12:52:45;;;;;;;4.10;1.13;;;;;;;;;;4999102;28;20037;-81
2023/08/07 12:55:11;;;;;;;5.25;1.00;;;;;;;;;;5003667;28;20025;-81
2023/08/07 12:57:37;;;;;;;3.17;0.90;;;;;;;;;;4994340;28;20507;-80
2023/08/07 13:00:04;;;;;;;7.20;1.35;;;;;;;;;;4990548;28;20049;-80
2023/08/07 13:02:29;;;;;;;5.03;1.30;;;;;;;;;;5006176;28;20152;-81
2023/08/07 13:04:56;;;;;;;10.48;1.88;;;;;;;;;;4993424;28;20129;-81
2023/08/07 13:07:22;;;;;;;6.50;1.63;;;;;;;;;;5011467;28;20046;-80
2023/08/07 13:09:48;;;;;;;7.50;2.20;;;;;;;;;;5015314;28;20055;-80
2023/08/07 13:12:13;;;;;;;8.38;1.80;;;;;;;;;;5014098;28;20038;-81
2023/08/07 13:14:38;;;;;;;5.13;1.80;;;;;;;;;;4988682;28;20041;-81
2023/08/07 13:17:04;;;;;;;6.72;1.85;;;;;;;;;;5015252;28;20038;-79
2023/08/07 13:19:29;;;;;;;5.63;1.55;;;;;;;;;;4983513;28;20402;-80
2023/08/07 13:21:55;;;;;;;6.32;1.75;;;;;;;;;;4991612;28;20367;-79
2023/08/07 13:24:20;;;;;;;6.03;1.70;;;;;;;;;;4991844;28;20076;-81
2023/08/07 13:26:46;;;;;;;7.38;2.28;;;;;;;;;;4990578;28;20041;-79
2023/08/07 13:29:12;;;;;;;6.85;2.33;;;;;;;;;;4995607;28;20049;-80
2023/08/07 13:31:37;;;;;;;6.38;1.73;;;;;;;;;;4994342;28;20035;-80
2023/08/07 13:34:07;;;;;;;6.20;1.90;;;;;;;;;;4980604;28;20059;-80
2023/08/07 13:36:36;;;;;;;7.18;2.10;;;;;;;;;;4993733;28;20041;-79
2023/08/07 13:39:01;;;;;;;9.20;2.00;;;;;;;;;;4976896;28;20043;-80
2023/08/07 13:41:27;;;;;;;5.38;1.60;;;;;;;;;;4982037;28;20037;-79
2023/08/07 13:43:52;;;;;;;8.77;1.88;;;;;;;;;;4983823;28;20120;-79
2023/08/07 13:46:18;;;;;;;10.30;1.90;;;;;;;;;;4995664;28;20049;-79
2023/08/07 13:48:47;;;;;;;6.53;1.73;;;;;;;;;;4998815;28;20041;-80
2023/08/07 13:51:13;;;;;;;6.65;1.67;;;;;;;;;;4999064;28;20038;-79
2023/08/07 13:53:39;;;;;;;11.20;1.75;;;;;;;;;;5013126;28;20056;-80
2023/08/07 13:56:04;;;;;;;5.97;1.70;;;;;;;;;;5003185;28;20061;-80
2023/08/07 13:58:32;;;;;;;3.67;1.15;;;;;;;;;;5012821;28;20034;-79
2023/08/07 14:00:58;;;;;;;5.53;1.35;;;;;;;;;;4989359;28;20045;-80
2023/08/07 14:03:23;;;;;;;6.50;1.65;;;;;;;;;;5011435;28;20064;-80
2023/08/07 14:05:50;;;;;;;4.05;1.05;;;;;;;;;;5011647;28;20441;-79
2023/08/07 14:08:16;;;;;;;7.50;1.50;;;;;;;;;;5004020;28;20045;-80
2023/08/07 14:10:41;;;;;;;5.28;1.27;;;;;;;;;;4993910;28;20115;-79
2023/08/07 14:13:07;;;;;;;4.32;1.20;;;;;;;;;;5001127;28;20111;-81
2023/08/07 14:15:32;;;;;;;5.43;1.33;;;;;;;;;;5002965;28;20045;-80
2023/08/07 14:17:58;;;;;;;4.00;1.13;;;;;;;;;;5017322;28;20189;-81
2023/08/07 14:20:33;;;;;;;7.05;1.20;;;;;;;;;;5014497;28;20030;-81
2023/08/07 14:22:59;;;;;;;7.53;1.80;;;;;;;;;;5007015;28;20037;-81
2023/08/07 14:25:24;;;;;;;5.75;1.20;;;;;;;;;;5013980;28;20037;-80
2023/08/07 14:27:50;;;;;;;7.30;1.40;;;;;;;;;;4992489;28;20038;-80
2023/08/07 14:30:15;;;;;;;6.07;1.33;;;;;;;;;;5015204;28;20076;-80
2023/08/07 14:32:42;;;;;;;4.40;1.33;;;;;;;;;;4999586;28;20049;-80
2023/08/07 14:35:13;;;;;;;6.53;1.50;;;;;;;;;;4998407;28;20070;-81
2023/08/07 14:37:40;;;;;;;8.38;1.83;;;;;;;;;;5017437;28;20052;-80
2023/08/07 14:40:06;;;;;;;6.70;1.50;;;;;;;;;;4994852;28;20049;-81